sensor_id;sensor_type;location;lat;lon;timestamp;P1;durP1;ratioP1;P2;durP2;ratioP2
70169;SDS011;57543;45.442;9.212;2023-05-07T00:00:20;30.20;;;21.15;;
70169;SDS011;57543;45.442;9.212;2023-05-07T00:03:23;28.23;;;19.73;;
70169;SDS011;57543;45.442;9.212;2023-05-07T00:06:28;29.70;;;19.80;;
70169;SDS011;57543;45.442;9.212;2023-05-07T00:09:32;29.20;;;20.10;;
70169;SDS011;57543;45.442;9.212;2023-05-07T00:12:35;27.20;;;20.02;;
70169;SDS011;57543;45.442;9.212;2023-05-07T00:15:39;32.92;;;22.98;;
70169;SDS011;57543;45.442;9.212;2023-05-07T00:18:43;33.93;;;24.03;;
70169;SDS011;57543;45.442;9.212;2023-05-07T00:21:46;31.98;;;22.00;;
70169;SDS011;57543;45.442;9.212;2023-05-07T00:24:51;35.55;;;24.83;;
70169;SDS011;57543;45.442;9.212;2023-05-07T00:27:54;26.05;;;18.33;;
70169;SDS011;57543;45.442;9.212;2023-05-07T00:30:57;17.48;;;11.43;;
70169;SDS011;57543;45.442;9.212;2023-05-07T00:34:01;12.00;;;8.17;;
70169;SDS011;57543;45.442;9.212;2023-05-07T00:37:05;8.63;;;5.55;;
70169;SDS011;57543;45.442;9.212;2023-05-07T00:40:10;9.77;;;5.10;;
70169;SDS011;57543;45.442;9.212;2023-05-07T00:43:14;7.35;;;3.65;;
70169;SDS011;57543;45.442;9.212;2023-05-07T00:46:19;6.82;;;4.05;;
70169;SDS011;57543;45.442;9.212;2023-05-07T00:49:28;5.23;;;3.37;;
70169;SDS011;57543;45.442;9.212;2023-05-07T00:52:55;7.30;;;3.83;;
70169;SDS011;57543;45.442;9.212;2023-05-07T00:55:59;6.25;;;4.03;;
70169;SDS011;57543;45.442;9.212;2023-05-07T00:59:04;6.70;;;3.83;;
70169;SDS011;57543;45.442;9.212;2023-05-07T01:02:09;5.50;;;3.40;;
70169;SDS011;57543;45.442;9.212;2023-05-07T01:05:14;5.60;;;3.40;;
70169;SDS011;57543;45.442;9.212;2023-05-07T01:08:20;5.47;;;3.50;;
70169;SDS011;57543;45.442;9.212;2023-05-07T01:11:26;5.82;;;3.40;;
70169;SDS011;57543;45.442;9.212;2023-05-07T01:14:29;6.38;;;3.28;;
70169;SDS011;57543;45.442;9.212;2023-05-07T01:17:35;5.90;;;3.10;;
70169;SDS011;57543;45.442;9.212;2023-05-07T01:20:39;6.10;;;3.13;;
70169;SDS011;57543;45.442;9.212;2023-05-07T01:23:45;5.75;;;2.95;;
70169;SDS011;57543;45.442;9.212;2023-05-07T01:26:50;5.90;;;3.40;;
70169;SDS011;57543;45.442;9.212;2023-05-07T01:29:55;8.02;;;4.72;;
70169;SDS011;57543;45.442;9.212;2023-05-07T01:33:09;9.38;;;5.90;;
70169;SDS011;57543;45.442;9.212;2023-05-07T01:36:17;9.63;;;6.33;;
70169;SDS011;57543;45.442;9.212;2023-05-07T01:39:24;8.05;;;6.13;;
70169;SDS011;57543;45.442;9.212;2023-05-07T01:42:30;11.10;;;7.50;;
70169;SDS011;57543;45.442;9.212;2023-05-07T01:45:35;9.23;;;6.25;;
70169;SDS011;57543;45.442;9.212;2023-05-07T01:48:39;13.18;;;8.60;;
70169;SDS011;57543;45.442;9.212;2023-05-07T01:51:43;11.90;;;8.73;;
70169;SDS011;57543;45.442;9.212;2023-05-07T01:54:47;14.10;;;10.02;;
70169;SDS011;57543;45.442;9.212;2023-05-07T01:57:51;13.88;;;8.82;;
70169;SDS011;57543;45.442;9.212;2023-05-07T02:00:54;14.98;;;10.02;;
70169;SDS011;57543;45.442;9.212;2023-05-07T02:03:58;14.13;;;9.65;;
70169;SDS011;57543;45.442;9.212;2023-05-07T02:07:03;12.93;;;8.80;;
70169;SDS011;57543;45.442;9.212;2023-05-07T02:10:09;9.82;;;7.57;;
70169;SDS011;57543;45.442;9.212;2023-05-07T02:13:13;9.05;;;6.07;;
70169;SDS011;57543;45.442;9.212;2023-05-07T02:16:17;8.90;;;5.68;;
70169;SDS011;57543;45.442;9.212;2023-05-07T02:19:22;7.85;;;5.65;;
70169;SDS011;57543;45.442;9.212;2023-05-07T02:22:26;7.43;;;4.47;;
70169;SDS011;57543;45.442;9.212;2023-05-07T02:25:30;8.15;;;3.97;;
70169;SDS011;57543;45.442;9.212;2023-05-07T02:28:34;6.18;;;3.45;;
70169;SDS011;57543;45.442;9.212;2023-05-07T02:31:42;4.68;;;2.97;;
70169;SDS011;57543;45.442;9.212;2023-05-07T02:34:46;4.60;;;2.50;;
70169;SDS011;57543;45.442;9.212;2023-05-07T02:37:50;5.27;;;2.00;;
70169;SDS011;57543;45.442;9.212;2023-05-07T02:40:53;5.80;;;2.20;;
70169;SDS011;57543;45.442;9.212;2023-05-07T02:43:57;3.67;;;2.10;;
70169;SDS011;57543;45.442;9.212;2023-05-07T02:47:02;3.78;;;1.70;;
70169;SDS011;57543;45.442;9.212;2023-05-07T02:50:06;4.05;;;2.47;;
70169;SDS011;57543;45.442;9.212;2023-05-07T02:53:10;5.27;;;2.17;;
70169;SDS011;57543;45.442;9.212;2023-05-07T02:56:14;3.22;;;1.70;;
70169;SDS011;57543;45.442;9.212;2023-05-07T02:59:18;4.63;;;1.70;;
70169;SDS011;57543;45.442;9.212;2023-05-07T03:02:21;3.42;;;2.10;;
70169;SDS011;57543;45.442;9.212;2023-05-07T03:05:25;3.15;;;1.50;;
70169;SDS011;57543;45.442;9.212;2023-05-07T03:08:28;3.97;;;1.83;;
70169;SDS011;57543;45.442;9.212;2023-05-07T03:11:32;3.67;;;1.60;;
70169;SDS011;57543;45.442;9.212;2023-05-07T03:14:36;3.42;;;1.60;;
70169;SDS011;57543;45.442;9.212;2023-05-07T03:17:40;3.33;;;1.80;;
70169;SDS011;57543;45.442;9.212;2023-05-07T03:20:44;3.45;;;1.90;;
70169;SDS011;57543;45.442;9.212;2023-05-07T03:23:47;5.10;;;1.70;;
70169;SDS011;57543;45.442;9.212;2023-05-07T03:26:51;3.25;;;1.80;;
70169;SDS011;57543;45.442;9.212;2023-05-07T03:29:55;3.50;;;1.80;;
70169;SDS011;57543;45.442;9.212;2023-05-07T03:32:59;3.97;;;2.03;;
70169;SDS011;57543;45.442;9.212;2023-05-07T03:36:03;3.78;;;2.00;;
70169;SDS011;57543;45.442;9.212;2023-05-07T03:39:08;3.60;;;2.10;;
70169;SDS011;57543;45.442;9.212;2023-05-07T03:42:15;4.15;;;2.10;;
70169;SDS011;57543;45.442;9.212;2023-05-07T03:45:19;4.80;;;2.10;;
70169;SDS011;57543;45.442;9.212;2023-05-07T03:48:30;3.53;;;1.85;;
70169;SDS011;57543;45.442;9.212;2023-05-07T03:51:35;4.00;;;1.65;;
70169;SDS011;57543;45.442;9.212;2023-05-07T03:54:40;3.43;;;1.80;;
70169;SDS011;57543;45.442;9.212;2023-05-07T03:57:44;4.57;;;1.90;;
70169;SDS011;57543;45.442;9.212;2023-05-07T04:00:47;4.18;;;2.28;;
70169;SDS011;57543;45.442;9.212;2023-05-07T04:03:59;3.50;;;2.00;;
70169;SDS011;57543;45.442;9.212;2023-05-07T04:07:03;3.78;;;2.10;;
70169;SDS011;57543;45.442;9.212;2023-05-07T04:10:09;3.50;;;2.00;;
70169;SDS011;57543;45.442;9.212;2023-05-07T04:13:15;3.58;;;1.98;;
70169;SDS011;57543;45.442;9.212;2023-05-07T04:16:19;3.15;;;1.70;;
70169;SDS011;57543;45.442;9.212;2023-05-07T04:19:23;3.45;;;1.85;;
70169;SDS011;57543;45.442;9.212;2023-05-07T04:22:29;3.33;;;1.60;;
70169;SDS011;57543;45.442;9.212;2023-05-07T04:25:33;3.40;;;1.73;;
70169;SDS011;57543;45.442;9.212;2023-05-07T04:28:47;3.05;;;1.75;;
70169;SDS011;57543;45.442;9.212;2023-05-07T04:31:52;3.20;;;1.70;;
70169;SDS011;57543;45.442;9.212;2023-05-07T04:34:56;3.75;;;1.90;;
70169;SDS011;57543;45.442;9.212;2023-05-07T04:38:00;3.15;;;1.80;;
70169;SDS011;57543;45.442;9.212;2023-05-07T04:41:06;3.33;;;2.00;;
70169;SDS011;57543;45.442;9.212;2023-05-07T04:44:16;3.20;;;2.08;;
70169;SDS011;57543;45.442;9.212;2023-05-07T04:47:21;3.03;;;1.42;;
70169;SDS011;57543;45.442;9.212;2023-05-07T04:50:25;3.00;;;1.63;;
70169;SDS011;57543;45.442;9.212;2023-05-07T04:53:32;4.25;;;1.77;;
70169;SDS011;57543;45.442;9.212;2023-05-07T04:56:36;3.47;;;1.83;;
70169;SDS011;57543;45.442;9.212;2023-05-07T04:59:40;4.18;;;1.90;;
70169;SDS011;57543;45.442;9.212;2023-05-07T05:02:44;2.90;;;1.40;;
70169;SDS011;57543;45.442;9.212;2023-05-07T05:05:51;4.30;;;1.65;;
70169;SDS011;57543;45.442;9.212;2023-05-07T05:08:56;3.13;;;1.52;;
70169;SDS011;57543;45.442;9.212;2023-05-07T05:12:01;3.63;;;1.70;;
70169;SDS011;57543;45.442;9.212;2023-05-07T05:15:06;4.05;;;2.17;;
70169;SDS011;57543;45.442;9.212;2023-05-07T05:18:11;4.25;;;1.88;;
70169;SDS011;57543;45.442;9.212;2023-05-07T05:21:16;3.75;;;1.60;;
70169;SDS011;57543;45.442;9.212;2023-05-07T05:24:22;3.55;;;1.73;;
70169;SDS011;57543;45.442;9.212;2023-05-07T05:27:26;3.43;;;1.70;;
70169;SDS011;57543;45.442;9.212;2023-05-07T05:30:30;3.20;;;1.70;;
70169;SDS011;57543;45.442;9.212;2023-05-07T05:33:34;2.97;;;1.73;;
70169;SDS011;57543;45.442;9.212;2023-05-07T05:36:40;3.03;;;1.50;;
70169;SDS011;57543;45.442;9.212;2023-05-07T05:39:44;4.47;;;1.77;;
70169;SDS011;57543;45.442;9.212;2023-05-07T05:42:48;3.30;;;1.80;;
70169;SDS011;57543;45.442;9.212;2023-05-07T05:45:52;3.85;;;1.85;;
70169;SDS011;57543;45.442;9.212;2023-05-07T05:48:56;3.13;;;1.65;;
70169;SDS011;57543;45.442;9.212;2023-05-07T05:52:00;3.05;;;1.60;;
70169;SDS011;57543;45.442;9.212;2023-05-07T05:55:04;4.00;;;1.70;;
70169;SDS011;57543;45.442;9.212;2023-05-07T05:58:09;3.43;;;1.77;;
70169;SDS011;57543;45.442;9.212;2023-05-07T06:01:17;3.88;;;1.67;;
70169;SDS011;57543;45.442;9.212;2023-05-07T06:04:22;3.40;;;2.13;;
70169;SDS011;57543;45.442;9.212;2023-05-07T06:07:26;3.40;;;1.85;;
70169;SDS011;57543;45.442;9.212;2023-05-07T06:10:30;4.32;;;1.88;;
70169;SDS011;57543;45.442;9.212;2023-05-07T06:13:34;5.30;;;1.83;;
70169;SDS011;57543;45.442;9.212;2023-05-07T06:16:38;3.83;;;1.65;;
70169;SDS011;57543;45.442;9.212;2023-05-07T06:19:43;5.13;;;1.98;;
70169;SDS011;57543;45.442;9.212;2023-05-07T06:22:49;3.70;;;2.00;;
70169;SDS011;57543;45.442;9.212;2023-05-07T06:25:53;3.50;;;1.77;;
70169;SDS011;57543;45.442;9.212;2023-05-07T06:29:00;3.47;;;1.80;;
70169;SDS011;57543;45.442;9.212;2023-05-07T06:32:10;4.07;;;1.98;;
70169;SDS011;57543;45.442;9.212;2023-05-07T06:35:16;4.68;;;1.70;;
70169;SDS011;57543;45.442;9.212;2023-05-07T06:38:19;3.67;;;2.00;;
70169;SDS011;57543;45.442;9.212;2023-05-07T06:41:23;4.35;;;2.15;;
70169;SDS011;57543;45.442;9.212;2023-05-07T06:44:27;4.83;;;1.90;;
70169;SDS011;57543;45.442;9.212;2023-05-07T06:47:44;3.97;;;1.77;;
70169;SDS011;57543;45.442;9.212;2023-05-07T06:50:48;3.50;;;1.92;;
70169;SDS011;57543;45.442;9.212;2023-05-07T06:53:52;3.40;;;2.10;;
70169;SDS011;57543;45.442;9.212;2023-05-07T06:56:56;4.65;;;1.80;;
70169;SDS011;57543;45.442;9.212;2023-05-07T07:00:02;3.67;;;1.70;;
70169;SDS011;57543;45.442;9.212;2023-05-07T07:03:08;4.50;;;2.13;;
70169;SDS011;57543;45.442;9.212;2023-05-07T07:06:12;7.07;;;1.90;;
70169;SDS011;57543;45.442;9.212;2023-05-07T07:09:16;3.88;;;1.80;;
70169;SDS011;57543;45.442;9.212;2023-05-07T07:12:20;3.50;;;1.70;;
70169;SDS011;57543;45.442;9.212;2023-05-07T07:15:24;3.67;;;1.60;;
70169;SDS011;57543;45.442;9.212;2023-05-07T07:18:28;3.28;;;1.75;;
70169;SDS011;57543;45.442;9.212;2023-05-07T07:21:32;4.40;;;1.50;;
70169;SDS011;57543;45.442;9.212;2023-05-07T07:24:35;3.17;;;1.73;;
70169;SDS011;57543;45.442;9.212;2023-05-07T07:27:42;3.72;;;1.50;;
70169;SDS011;57543;45.442;9.212;2023-05-07T07:30:46;4.47;;;1.80;;
70169;SDS011;57543;45.442;9.212;2023-05-07T07:33:49;3.20;;;1.70;;
70169;SDS011;57543;45.442;9.212;2023-05-07T07:36:54;3.72;;;1.70;;
70169;SDS011;57543;45.442;9.212;2023-05-07T07:39:58;4.63;;;1.70;;
70169;SDS011;57543;45.442;9.212;2023-05-07T07:43:02;5.18;;;2.00;;
70169;SDS011;57543;45.442;9.212;2023-05-07T07:46:06;3.47;;;1.67;;
70169;SDS011;57543;45.442;9.212;2023-05-07T07:49:10;3.72;;;1.90;;
70169;SDS011;57543;45.442;9.212;2023-05-07T07:52:14;3.55;;;1.73;;
70169;SDS011;57543;45.442;9.212;2023-05-07T07:55:20;5.13;;;1.95;;
70169;SDS011;57543;45.442;9.212;2023-05-07T07:58:26;3.67;;;1.58;;
70169;SDS011;57543;45.442;9.212;2023-05-07T08:01:31;4.17;;;2.17;;
70169;SDS011;57543;45.442;9.212;2023-05-07T08:04:35;4.45;;;2.25;;
70169;SDS011;57543;45.442;9.212;2023-05-07T08:07:42;4.88;;;2.20;;
70169;SDS011;57543;45.442;9.212;2023-05-07T08:10:47;4.07;;;2.15;;
70169;SDS011;57543;45.442;9.212;2023-05-07T08:13:58;4.45;;;2.10;;
70169;SDS011;57543;45.442;9.212;2023-05-07T08:17:02;4.57;;;2.47;;
70169;SDS011;57543;45.442;9.212;2023-05-07T08:20:06;4.43;;;2.00;;
70169;SDS011;57543;45.442;9.212;2023-05-07T08:23:11;4.35;;;2.70;;
70169;SDS011;57543;45.442;9.212;2023-05-07T08:26:16;4.35;;;2.17;;
70169;SDS011;57543;45.442;9.212;2023-05-07T08:29:21;4.60;;;1.92;;
70169;SDS011;57543;45.442;9.212;2023-05-07T08:32:27;5.07;;;2.10;;
70169;SDS011;57543;45.442;9.212;2023-05-07T08:35:33;3.72;;;2.47;;
70169;SDS011;57543;45.442;9.212;2023-05-07T08:38:37;4.32;;;2.22;;
70169;SDS011;57543;45.442;9.212;2023-05-07T08:41:44;4.45;;;2.10;;
70169;SDS011;57543;45.442;9.212;2023-05-07T08:44:51;3.90;;;2.00;;
70169;SDS011;57543;45.442;9.212;2023-05-07T08:48:01;5.07;;;2.07;;
70169;SDS011;57543;45.442;9.212;2023-05-07T08:51:15;3.30;;;1.92;;
70169;SDS011;57543;45.442;9.212;2023-05-07T08:54:21;3.72;;;1.90;;
70169;SDS011;57543;45.442;9.212;2023-05-07T08:57:25;7.72;;;2.72;;
70169;SDS011;57543;45.442;9.212;2023-05-07T09:00:29;4.03;;;1.95;;
70169;SDS011;57543;45.442;9.212;2023-05-07T09:03:34;5.07;;;2.10;;
70169;SDS011;57543;45.442;9.212;2023-05-07T09:06:38;5.32;;;2.40;;
70169;SDS011;57543;45.442;9.212;2023-05-07T09:09:50;3.63;;;2.10;;
70169;SDS011;57543;45.442;9.212;2023-05-07T09:12:55;5.05;;;2.10;;
70169;SDS011;57543;45.442;9.212;2023-05-07T09:15:59;4.22;;;2.55;;
70169;SDS011;57543;45.442;9.212;2023-05-07T09:19:14;4.37;;;2.60;;
70169;SDS011;57543;45.442;9.212;2023-05-07T09:22:21;7.18;;;2.58;;
70169;SDS011;57543;45.442;9.212;2023-05-07T09:25:39;4.20;;;2.90;;
70169;SDS011;57543;45.442;9.212;2023-05-07T09:28:52;4.22;;;2.72;;
70169;SDS011;57543;45.442;9.212;2023-05-07T09:31:56;4.38;;;2.40;;
70169;SDS011;57543;45.442;9.212;2023-05-07T09:35:00;4.17;;;2.70;;
70169;SDS011;57543;45.442;9.212;2023-05-07T09:38:05;4.50;;;2.90;;
70169;SDS011;57543;45.442;9.212;2023-05-07T09:41:13;5.13;;;3.05;;
70169;SDS011;57543;45.442;9.212;2023-05-07T09:44:37;5.07;;;2.50;;
70169;SDS011;57543;45.442;9.212;2023-05-07T09:47:45;5.40;;;3.17;;
70169;SDS011;57543;45.442;9.212;2023-05-07T09:50:52;4.50;;;2.97;;
70169;SDS011;57543;45.442;9.212;2023-05-07T09:54:03;4.82;;;2.80;;
70169;SDS011;57543;45.442;9.212;2023-05-07T09:57:11;4.38;;;2.50;;
70169;SDS011;57543;45.442;9.212;2023-05-07T10:00:18;4.40;;;2.63;;
70169;SDS011;57543;45.442;9.212;2023-05-07T10:03:25;4.63;;;2.80;;
70169;SDS011;57543;45.442;9.212;2023-05-07T10:06:37;4.07;;;2.57;;
70169;SDS011;57543;45.442;9.212;2023-05-07T10:09:45;4.88;;;3.28;;
70169;SDS011;57543;45.442;9.212;2023-05-07T10:12:58;5.53;;;3.08;;
70169;SDS011;57543;45.442;9.212;2023-05-07T10:16:09;4.53;;;2.90;;
70169;SDS011;57543;45.442;9.212;2023-05-07T10:19:20;4.30;;;3.33;;
70169;SDS011;57543;45.442;9.212;2023-05-07T10:22:31;5.80;;;3.47;;
70169;SDS011;57543;45.442;9.212;2023-05-07T10:25:40;7.38;;;3.50;;
70169;SDS011;57543;45.442;9.212;2023-05-07T10:28:53;5.55;;;3.10;;
70169;SDS011;57543;45.442;9.212;2023-05-07T10:35:23;4.90;;;3.40;;
70169;SDS011;57543;45.442;9.212;2023-05-07T10:38:29;4.23;;;2.90;;
70169;SDS011;57543;45.442;9.212;2023-05-07T10:41:34;5.18;;;3.13;;
70169;SDS011;57543;45.442;9.212;2023-05-07T10:44:37;4.68;;;2.90;;
70169;SDS011;57543;45.442;9.212;2023-05-07T10:51:20;4.75;;;3.20;;
70169;SDS011;57543;45.442;9.212;2023-05-07T10:54:27;4.80;;;3.07;;
70169;SDS011;57543;45.442;9.212;2023-05-07T10:57:42;4.80;;;3.15;;
70169;SDS011;57543;45.442;9.212;2023-05-07T11:00:56;6.68;;;3.35;;
70169;SDS011;57543;45.442;9.212;2023-05-07T11:04:13;4.43;;;2.90;;
70169;SDS011;57543;45.442;9.212;2023-05-07T11:07:29;5.20;;;2.67;;
70169;SDS011;57543;45.442;9.212;2023-05-07T11:10:49;5.07;;;3.15;;
70169;SDS011;57543;45.442;9.212;2023-05-07T11:14:04;5.70;;;2.78;;
70169;SDS011;57543;45.442;9.212;2023-05-07T11:17:22;4.80;;;3.38;;
70169;SDS011;57543;45.442;9.212;2023-05-07T11:24:21;5.47;;;3.47;;
70169;SDS011;57543;45.442;9.212;2023-05-07T11:27:38;4.53;;;2.80;;
70169;SDS011;57543;45.442;9.212;2023-05-07T11:30:42;5.20;;;3.13;;
70169;SDS011;57543;45.442;9.212;2023-05-07T11:33:52;5.65;;;3.63;;
70169;SDS011;57543;45.442;9.212;2023-05-07T11:36:58;5.05;;;3.08;;
70169;SDS011;57543;45.442;9.212;2023-05-07T11:40:15;4.28;;;2.83;;
70169;SDS011;57543;45.442;9.212;2023-05-07T11:43:19;4.70;;;3.10;;
70169;SDS011;57543;45.442;9.212;2023-05-07T11:46:22;5.25;;;3.30;;
70169;SDS011;57543;45.442;9.212;2023-05-07T11:49:27;4.55;;;2.78;;
70169;SDS011;57543;45.442;9.212;2023-05-07T11:52:31;7.55;;;3.40;;
70169;SDS011;57543;45.442;9.212;2023-05-07T11:55:35;4.75;;;2.97;;
70169;SDS011;57543;45.442;9.212;2023-05-07T11:58:39;5.33;;;3.00;;
70169;SDS011;57543;45.442;9.212;2023-05-07T12:01:47;4.53;;;2.58;;
70169;SDS011;57543;45.442;9.212;2023-05-07T12:04:51;4.88;;;3.17;;
70169;SDS011;57543;45.442;9.212;2023-05-07T12:07:56;4.43;;;3.20;;
70169;SDS011;57543;45.442;9.212;2023-05-07T12:11:00;4.72;;;3.22;;
70169;SDS011;57543;45.442;9.212;2023-05-07T12:14:04;4.60;;;2.97;;
70169;SDS011;57543;45.442;9.212;2023-05-07T12:17:07;4.35;;;2.95;;
70169;SDS011;57543;45.442;9.212;2023-05-07T12:20:12;4.85;;;2.65;;
70169;SDS011;57543;45.442;9.212;2023-05-07T12:23:16;4.75;;;2.70;;
70169;SDS011;57543;45.442;9.212;2023-05-07T12:26:20;4.18;;;2.70;;
70169;SDS011;57543;45.442;9.212;2023-05-07T12:29:27;4.17;;;3.10;;
70169;SDS011;57543;45.442;9.212;2023-05-07T12:32:31;4.65;;;3.20;;
70169;SDS011;57543;45.442;9.212;2023-05-07T12:35:40;5.13;;;3.22;;
70169;SDS011;57543;45.442;9.212;2023-05-07T12:38:50;3.90;;;2.75;;
70169;SDS011;57543;45.442;9.212;2023-05-07T12:41:57;5.35;;;3.10;;
70169;SDS011;57543;45.442;9.212;2023-05-07T12:45:11;4.30;;;3.00;;
70169;SDS011;57543;45.442;9.212;2023-05-07T12:48:16;4.03;;;2.40;;
70169;SDS011;57543;45.442;9.212;2023-05-07T12:51:22;4.97;;;2.67;;
70169;SDS011;57543;45.442;9.212;2023-05-07T12:54:29;4.57;;;2.88;;
70169;SDS011;57543;45.442;9.212;2023-05-07T12:57:37;4.50;;;2.67;;
70169;SDS011;57543;45.442;9.212;2023-05-07T13:00:42;4.40;;;2.50;;
70169;SDS011;57543;45.442;9.212;2023-05-07T13:03:48;3.72;;;2.58;;
70169;SDS011;57543;45.442;9.212;2023-05-07T13:06:53;4.40;;;2.70;;
70169;SDS011;57543;45.442;9.212;2023-05-07T13:09:57;3.50;;;2.40;;
70169;SDS011;57543;45.442;9.212;2023-05-07T13:13:01;4.93;;;2.60;;
70169;SDS011;57543;45.442;9.212;2023-05-07T13:16:06;5.00;;;2.70;;
70169;SDS011;57543;45.442;9.212;2023-05-07T13:19:14;4.43;;;2.58;;
70169;SDS011;57543;45.442;9.212;2023-05-07T13:22:21;3.83;;;2.60;;
70169;SDS011;57543;45.442;9.212;2023-05-07T13:25:24;5.35;;;2.78;;
70169;SDS011;57543;45.442;9.212;2023-05-07T13:28:28;4.40;;;2.83;;
70169;SDS011;57543;45.442;9.212;2023-05-07T13:31:31;4.05;;;2.65;;
70169;SDS011;57543;45.442;9.212;2023-05-07T13:34:37;4.78;;;2.67;;
70169;SDS011;57543;45.442;9.212;2023-05-07T13:37:40;4.38;;;2.50;;
70169;SDS011;57543;45.442;9.212;2023-05-07T13:40:44;4.65;;;2.53;;
70169;SDS011;57543;45.442;9.212;2023-05-07T13:43:47;4.18;;;2.83;;
70169;SDS011;57543;45.442;9.212;2023-05-07T13:46:51;4.90;;;2.87;;
70169;SDS011;57543;45.442;9.212;2023-05-07T13:49:55;4.30;;;2.58;;
70169;SDS011;57543;45.442;9.212;2023-05-07T13:52:58;5.03;;;2.83;;
70169;SDS011;57543;45.442;9.212;2023-05-07T13:56:01;4.15;;;2.97;;
70169;SDS011;57543;45.442;9.212;2023-05-07T13:59:10;3.85;;;2.60;;
70169;SDS011;57543;45.442;9.212;2023-05-07T14:02:16;3.73;;;2.57;;
70169;SDS011;57543;45.442;9.212;2023-05-07T14:05:20;5.20;;;3.00;;
70169;SDS011;57543;45.442;9.212;2023-05-07T14:08:24;6.15;;;2.72;;
70169;SDS011;57543;45.442;9.212;2023-05-07T14:11:28;4.75;;;2.85;;
70169;SDS011;57543;45.442;9.212;2023-05-07T14:14:31;4.93;;;3.00;;
70169;SDS011;57543;45.442;9.212;2023-05-07T14:17:35;5.18;;;3.00;;
70169;SDS011;57543;45.442;9.212;2023-05-07T14:20:38;6.97;;;3.17;;
70169;SDS011;57543;45.442;9.212;2023-05-07T14:23:42;4.20;;;2.72;;
70169;SDS011;57543;45.442;9.212;2023-05-07T14:26:45;6.10;;;2.65;;
70169;SDS011;57543;45.442;9.212;2023-05-07T14:29:49;4.10;;;2.47;;
70169;SDS011;57543;45.442;9.212;2023-05-07T14:32:54;5.60;;;2.58;;
70169;SDS011;57543;45.442;9.212;2023-05-07T14:35:58;3.70;;;2.70;;
70169;SDS011;57543;45.442;9.212;2023-05-07T14:39:02;4.80;;;2.70;;
70169;SDS011;57543;45.442;9.212;2023-05-07T14:42:06;4.85;;;2.53;;
70169;SDS011;57543;45.442;9.212;2023-05-07T14:45:11;4.78;;;2.40;;
70169;SDS011;57543;45.442;9.212;2023-05-07T14:48:14;4.38;;;2.63;;
70169;SDS011;57543;45.442;9.212;2023-05-07T14:51:18;3.80;;;2.60;;
70169;SDS011;57543;45.442;9.212;2023-05-07T14:54:21;4.43;;;2.35;;
70169;SDS011;57543;45.442;9.212;2023-05-07T14:57:25;5.43;;;2.53;;
70169;SDS011;57543;45.442;9.212;2023-05-07T15:00:29;4.13;;;2.60;;
70169;SDS011;57543;45.442;9.212;2023-05-07T15:03:33;4.55;;;2.50;;
70169;SDS011;57543;45.442;9.212;2023-05-07T15:06:37;4.05;;;2.90;;
70169;SDS011;57543;45.442;9.212;2023-05-07T15:09:42;4.15;;;2.55;;
70169;SDS011;57543;45.442;9.212;2023-05-07T15:12:46;5.45;;;2.25;;
70169;SDS011;57543;45.442;9.212;2023-05-07T15:15:50;4.20;;;2.53;;
70169;SDS011;57543;45.442;9.212;2023-05-07T15:18:53;3.53;;;2.20;;
70169;SDS011;57543;45.442;9.212;2023-05-07T15:21:58;4.38;;;2.70;;
70169;SDS011;57543;45.442;9.212;2023-05-07T15:25:05;4.60;;;2.50;;
70169;SDS011;57543;45.442;9.212;2023-05-07T15:28:09;4.95;;;2.50;;
70169;SDS011;57543;45.442;9.212;2023-05-07T15:31:14;6.68;;;2.80;;
70169;SDS011;57543;45.442;9.212;2023-05-07T15:34:18;4.23;;;2.50;;
70169;SDS011;57543;45.442;9.212;2023-05-07T15:37:22;3.33;;;2.15;;
70169;SDS011;57543;45.442;9.212;2023-05-07T15:40:26;3.35;;;2.30;;
70169;SDS011;57543;45.442;9.212;2023-05-07T15:43:30;4.15;;;2.35;;
70169;SDS011;57543;45.442;9.212;2023-05-07T15:46:34;3.70;;;2.45;;
70169;SDS011;57543;45.442;9.212;2023-05-07T15:49:37;4.13;;;2.40;;
70169;SDS011;57543;45.442;9.212;2023-05-07T15:52:41;4.43;;;2.65;;
70169;SDS011;57543;45.442;9.212;2023-05-07T15:55:45;3.97;;;2.40;;
70169;SDS011;57543;45.442;9.212;2023-05-07T15:58:50;5.43;;;2.50;;
70169;SDS011;57543;45.442;9.212;2023-05-07T16:01:55;4.38;;;2.80;;
70169;SDS011;57543;45.442;9.212;2023-05-07T16:04:59;4.93;;;2.80;;
70169;SDS011;57543;45.442;9.212;2023-05-07T16:08:03;4.60;;;2.78;;
70169;SDS011;57543;45.442;9.212;2023-05-07T16:11:08;3.60;;;2.63;;
70169;SDS011;57543;45.442;9.212;2023-05-07T16:14:11;8.00;;;2.75;;
70169;SDS011;57543;45.442;9.212;2023-05-07T16:17:16;4.35;;;2.90;;
70169;SDS011;57543;45.442;9.212;2023-05-07T16:20:20;5.80;;;3.07;;
70169;SDS011;57543;45.442;9.212;2023-05-07T16:23:24;4.30;;;2.92;;
70169;SDS011;57543;45.442;9.212;2023-05-07T16:26:28;4.55;;;2.80;;
70169;SDS011;57543;45.442;9.212;2023-05-07T16:29:31;6.88;;;3.30;;
70169;SDS011;57543;45.442;9.212;2023-05-07T16:32:35;5.70;;;3.47;;
70169;SDS011;57543;45.442;9.212;2023-05-07T16:35:39;4.40;;;3.20;;
70169;SDS011;57543;45.442;9.212;2023-05-07T16:38:43;4.97;;;3.30;;
70169;SDS011;57543;45.442;9.212;2023-05-07T16:41:47;4.32;;;3.47;;
70169;SDS011;57543;45.442;9.212;2023-05-07T16:44:55;4.32;;;2.88;;
70169;SDS011;57543;45.442;9.212;2023-05-07T16:47:59;4.57;;;3.13;;
70169;SDS011;57543;45.442;9.212;2023-05-07T16:51:03;5.63;;;3.40;;
70169;SDS011;57543;45.442;9.212;2023-05-07T16:54:07;4.85;;;3.38;;
70169;SDS011;57543;45.442;9.212;2023-05-07T16:57:11;4.80;;;3.50;;
70169;SDS011;57543;45.442;9.212;2023-05-07T17:00:15;5.05;;;3.38;;
70169;SDS011;57543;45.442;9.212;2023-05-07T17:03:19;5.30;;;2.83;;
70169;SDS011;57543;45.442;9.212;2023-05-07T17:06:23;5.00;;;3.33;;
70169;SDS011;57543;45.442;9.212;2023-05-07T17:09:27;5.75;;;3.58;;
70169;SDS011;57543;45.442;9.212;2023-05-07T17:12:30;7.00;;;3.47;;
70169;SDS011;57543;45.442;9.212;2023-05-07T17:15:34;6.95;;;3.47;;
70169;SDS011;57543;45.442;9.212;2023-05-07T17:18:39;4.50;;;3.42;;
70169;SDS011;57543;45.442;9.212;2023-05-07T17:21:43;4.77;;;3.40;;
70169;SDS011;57543;45.442;9.212;2023-05-07T17:24:47;5.93;;;3.10;;
70169;SDS011;57543;45.442;9.212;2023-05-07T17:27:50;4.93;;;3.47;;
70169;SDS011;57543;45.442;9.212;2023-05-07T17:30:54;5.72;;;3.10;;
70169;SDS011;57543;45.442;9.212;2023-05-07T17:33:57;5.00;;;3.20;;
70169;SDS011;57543;45.442;9.212;2023-05-07T17:37:01;6.20;;;3.40;;
70169;SDS011;57543;45.442;9.212;2023-05-07T17:40:05;4.85;;;3.40;;
70169;SDS011;57543;45.442;9.212;2023-05-07T17:43:09;5.40;;;3.10;;
70169;SDS011;57543;45.442;9.212;2023-05-07T17:46:13;5.45;;;3.80;;
70169;SDS011;57543;45.442;9.212;2023-05-07T17:49:18;5.55;;;3.53;;
70169;SDS011;57543;45.442;9.212;2023-05-07T17:52:22;5.67;;;3.83;;
70169;SDS011;57543;45.442;9.212;2023-05-07T17:55:26;5.90;;;3.10;;
70169;SDS011;57543;45.442;9.212;2023-05-07T17:58:31;4.90;;;3.38;;
70169;SDS011;57543;45.442;9.212;2023-05-07T18:01:35;5.40;;;3.47;;
70169;SDS011;57543;45.442;9.212;2023-05-07T18:04:38;6.32;;;3.50;;
70169;SDS011;57543;45.442;9.212;2023-05-07T18:07:42;5.70;;;3.50;;
70169;SDS011;57543;45.442;9.212;2023-05-07T18:10:46;6.13;;;3.70;;
70169;SDS011;57543;45.442;9.212;2023-05-07T18:13:50;5.10;;;3.30;;
70169;SDS011;57543;45.442;9.212;2023-05-07T18:16:54;5.22;;;3.60;;
70169;SDS011;57543;45.442;9.212;2023-05-07T18:19:58;5.35;;;3.85;;
70169;SDS011;57543;45.442;9.212;2023-05-07T18:23:01;5.87;;;3.57;;
70169;SDS011;57543;45.442;9.212;2023-05-07T18:26:06;6.40;;;3.50;;
70169;SDS011;57543;45.442;9.212;2023-05-07T18:29:09;5.93;;;3.40;;
70169;SDS011;57543;45.442;9.212;2023-05-07T18:32:13;4.85;;;2.83;;
70169;SDS011;57543;45.442;9.212;2023-05-07T18:35:17;4.45;;;2.67;;
70169;SDS011;57543;45.442;9.212;2023-05-07T18:38:21;4.87;;;2.50;;
70169;SDS011;57543;45.442;9.212;2023-05-07T18:41:25;4.72;;;2.50;;
70169;SDS011;57543;45.442;9.212;2023-05-07T18:44:28;5.28;;;2.00;;